Time,TemperatureF,DewpointF,PressureIn,WindDirection,WindDirectionDegrees,WindSpeedMPH,WindSpeedGustMPH,Humidity,HourlyPrecipIn,Conditions,Clouds,dailyrainin,SoftwareType,DateUTC
2013-04-18 00:04:00,56.7,54.7,29.15,East,96,6.0,9.0,93,0.00,,,0.00,Wunderground v.1.15,2013-04-18 05:04:00,
2013-04-18 00:09:00,56.7,54.4,29.14,East,90,4.0,9.0,92,0.00,,,0.00,Wunderground v.1.15,2013-04-18 05:09:00,
2013-04-18 00:14:00,56.4,54.4,29.14,East,82,5.0,12.0,93,0.00,,,0.00,Wunderground v.1.15,2013-04-18 05:14:00,
2013-04-18 00:20:00,56.2,54.2,29.14,East,89,1.0,6.0,93,0.00,,,0.00,Wunderground v.1.15,2013-04-18 05:20:00,
2013-04-18 00:25:00,56.1,54.1,29.13,ESE,104,4.0,6.0,93,0.00,,,0.00,Wunderground v.1.15,2013-04-18 05:25:00,
2013-04-18 00:31:00,56.0,54.0,29.13,ESE,103,9.0,12.0,93,0.00,,,0.00,Wunderground v.1.15,2013-04-18 05:31:00,
2013-04-18 00:36:00,55.9,53.9,29.13,ESE,107,13.0,13.0,93,0.00,,,0.00,Wunderground v.1.15,2013-04-18 05:36:00,
2013-04-18 00:42:00,55.7,53.7,29.13,ESE,108,6.0,8.0,93,0.00,,,0.00,Wunderground v.1.15,2013-04-18 05:42:00,
2013-04-18 00:56:00,55.5,53.8,29.13,SE,124,2.0,2.0,94,0.00,,,0.00,Wunderground v.1.15,2013-04-18 05:56:00,
2013-04-18 01:02:00,-27.7,-29.0,29.17,West,267,5.0,14.0,93,0.00,,,0.00,Wunderground v.1.15,2013-04-18 06:02:00,
2013-04-18 01:08:00,55.8,54.1,29.16,NW,316,5.0,14.0,94,0.00,,,0.00,Wunderground v.1.15,2013-04-18 06:08:00,
2013-04-18 01:13:00,55.9,54.2,29.14,South,175,4.0,7.0,94,0.00,,,0.00,Wunderground v.1.15,2013-04-18 06:13:00,
2013-04-18 01:18:00,57.2,55.8,29.15,South,174,4.0,10.0,95,0.00,,,0.00,Wunderground v.1.15,2013-04-18 06:18:00,
2013-04-18 01:24:00,56.5,54.8,29.14,NNW,347,8.0,8.0,94,0.00,,,0.00,Wunderground v.1.15,2013-04-18 06:24:00,
2013-04-18 01:29:00,56.3,54.6,29.14,North,355,5.0,8.0,94,0.00,,,0.00,Wunderground v.1.15,2013-04-18 06:29:00,
2013-04-18 01:40:00,56.6,54.9,29.13,NNE,30,3.0,3.0,94,0.00,,,0.00,Wunderground v.1.15,2013-04-18 06:40:00,
2013-04-18 01:46:00,57.0,55.6,29.15,NW,315,8.0,8.0,95,0.00,,,0.00,Wunderground v.1.15,2013-04-18 06:46:00,
2013-04-18 01:51:00,57.1,55.7,29.17,NNE,24,5.0,5.0,95,0.00,,,0.00,Wunderground v.1.15,2013-04-18 06:51:00,
2013-04-18 01:57:00,57.0,55.3,29.16,WNW,298,6.0,9.0,94,0.00,,,0.00,Wunderground v.1.15,2013-04-18 06:57:00,
2013-04-18 02:02:00,57.1,55.4,29.14,North,355,0.0,9.0,94,0.00,,,0.00,Wunderground v.1.15,2013-04-18 07:02:00,
2013-04-18 02:07:00,57.1,55.4,29.13,NNW,348,0.0,9.0,94,0.00,,,0.00,Wunderground v.1.15,2013-04-18 07:07:00,
2013-04-18 02:13:00,57.1,55.7,29.12,North,355,0.0,6.0,95,0.00,,,0.00,Wunderground v.1.15,2013-04-18 07:13:00,
2013-04-18 02:18:00,57.2,55.5,29.11,North,5,5.0,6.0,94,0.00,,,0.00,Wunderground v.1.15,2013-04-18 07:18:00,
2013-04-18 02:23:00,57.2,55.5,29.10,NNE,26,4.0,7.0,94,0.00,,,0.00,Wunderground v.1.15,2013-04-18 07:23:00,
2013-04-18 02:28:00,57.2,55.5,29.11,NW,325,2.0,7.0,94,0.00,,,0.00,Wunderground v.1.15,2013-04-18 07:28:00,
2013-04-18 02:33:00,57.2,55.8,29.13,NW,307,5.0,8.0,95,0.00,,,0.00,Wunderground v.1.15,2013-04-18 07:33:00,
2013-04-18 17:20:00,45.6,39.8,29.17,SW,223,4.0,4.0,80,0.00,,,0.02,Wunderground v.1.15,2013-04-18 22:20:00,